Time;durP1;ratioP1;P1;durP2;ratioP2;P2;SDS_P1;SDS_P2;PMS_P1;PMS_P2;Temp;Humidity;BMP_temperature;BMP_pressure;BME280_temperature;BME280_humidity;BME280_pressure;Samples;Min_cycle;Max_cycle;Signal;HPM_P1;HPM_P2
2021/03/24 00:00:44;;;;;;;4.32;3.13;;;;;;;6.47;46.32;100654.59;5036536;28;20036;-80
2021/03/24 00:03:10;;;;;;;3.97;2.75;;;;;;;6.49;46.54;100652.31;5036115;28;20029;-79
2021/03/24 00:05:38;;;;;;;4.80;2.83;;;;;;;6.51;46.68;100659.16;5036473;28;20032;-79
2021/03/24 00:08:05;;;;;;;3.75;2.83;;;;;;;6.46;46.57;100666.81;5036651;28;20033;-79
2021/03/24 00:10:32;;;;;;;8.75;5.45;;;;;;;6.52;46.41;100671.84;5036200;28;20029;-79
2021/03/24 00:12:59;;;;;;;2.85;1.85;;;;;;;6.57;45.56;100668.09;5036169;28;20029;-79
2021/03/24 00:15:26;;;;;;;4.80;2.47;;;;;;;6.36;45.52;100626.47;5036373;28;20128;-79
2021/03/24 00:17:53;;;;;;;2.97;1.98;;;;;;;6.64;44.97;100670.38;5036624;28;20475;-80
2021/03/24 00:20:25;;;;;;;4.15;2.80;;;;;;;6.58;45.60;100666.97;5032733;28;20049;-79
2021/03/24 00:22:51;;;;;;;3.60;2.20;;;;;;;6.45;45.64;100656.88;5032602;28;20026;-79
2021/03/24 00:25:18;;;;;;;4.15;2.33;;;;;;;6.42;46.47;100654.75;5033776;28;20044;-79
2021/03/24 00:27:45;;;;;;;4.00;2.25;;;;;;;6.30;46.79;100647.91;5033065;28;20025;-79
2021/03/24 00:30:16;;;;;;;2.08;1.83;;;;;;;6.58;45.74;100666.97;5032830;28;20426;-79
2021/03/24 00:32:42;;;;;;;3.25;1.90;;;;;;;6.53;46.10;100669.88;5032634;28;20041;-79
2021/03/24 00:35:09;;;;;;;3.47;2.35;;;;;;;6.56;45.83;100675.59;5032564;28;20026;-79
2021/03/24 00:37:35;;;;;;;3.72;2.35;;;;;;;6.43;45.73;100664.66;5032993;28;20415;-79
2021/03/24 00:40:03;;;;;;;4.10;2.03;;;;;;;6.43;45.94;100646.13;5032706;28;20084;-79
2021/03/24 00:42:31;;;;;;;1.85;1.35;;;;;;;6.53;45.17;100647.78;5032574;28;20033;-79
2021/03/24 00:44:56;;;;;;;3.55;2.10;;;;;;;6.65;45.23;100650.69;5032624;28;20025;-79
2021/03/24 00:47:22;;;;;;;1.73;1.63;;;;;;;6.51;44.71;100605.81;5032510;28;20025;-79
2021/03/24 00:49:48;;;;;;;1.50;1.38;;;;;;;6.83;44.62;100646.81;5037812;28;20030;-77
2021/03/24 00:52:16;;;;;;;1.92;1.80;;;;;;;6.81;43.58;100624.16;5034629;28;20369;-77
2021/03/24 00:54:42;;;;;;;2.28;1.85;;;;;;;6.72;44.17;100639.16;5032544;28;20441;-77
2021/03/24 00:57:08;;;;;;;2.05;1.70;;;;;;;6.57;44.87;100644.03;5033080;28;20156;-77
2021/03/24 00:59:33;;;;;;;3.63;2.20;;;;;;;6.61;44.55;100646.97;5032488;28;20072;-78
2021/03/24 01:01:59;;;;;;;3.83;2.08;;;;;;;6.55;44.44;100634.41;5032335;28;20037;-79
2021/03/24 01:04:24;;;;;;;2.88;2.13;;;;;;;6.43;44.84;100625.97;5035060;28;20041;-79
2021/03/24 01:06:50;;;;;;;3.47;2.05;;;;;;;6.53;44.71;100642.25;5036300;28;20041;-79
2021/03/24 01:09:16;;;;;;;2.13;1.58;;;;;;;6.52;44.77;100654.44;5036296;28;20435;-79
2021/03/24 01:11:42;;;;;;;1.70;1.60;;;;;;;6.59;45.50;100662.25;5035769;28;20044;-79
2021/03/24 01:14:09;;;;;;;4.18;2.15;;;;;;;6.63;45.31;100664.03;5035215;28;20426;-79
2021/03/24 01:16:34;;;;;;;3.58;2.30;;;;;;;6.53;45.78;100672.66;5036057;28;20372;-79
2021/03/24 01:19:00;;;;;;;2.97;2.13;;;;;;;6.48;45.30;100657.03;5035326;28;20025;-79
2021/03/24 01:21:28;;;;;;;5.28;2.05;;;;;;;6.46;45.56;100664.03;5034899;28;20057;-79
2021/03/24 01:23:54;;;;;;;4.20;2.50;;;;;;;6.21;46.12;100660.91;5035934;28;20365;-79
2021/03/24 01:26:22;;;;;;;6.43;4.75;;;;;;;5.86;47.14;100678.47;5035642;28;20044;-79
2021/03/24 01:28:57;;;;;;;7.10;4.30;;;;;;;5.70;48.17;100670.63;5035891;28;20029;-79
2021/03/24 01:31:28;;;;;;;5.35;4.22;;;;;;;5.54;48.26;100677.69;5035355;28;20034;-79
2021/03/24 01:33:54;;;;;;;4.85;3.33;;;;;;;5.38;48.72;100673.69;5035730;28;20539;-79
2021/03/24 01:36:20;;;;;;;7.75;3.80;;;;;;;5.36;48.87;100681.47;5035614;28;20025;-79
2021/03/24 01:38:48;;;;;;;5.60;3.67;;;;;;;5.33;48.87;100673.84;5035357;28;20033;-79
2021/03/24 01:41:14;;;;;;;11.48;4.25;;;;;;;5.38;49.37;100685.56;5035168;28;20029;-78
2021/03/24 01:43:40;;;;;;;5.35;3.10;;;;;;;5.31;48.98;100678.84;5035079;28;20025;-77
2021/03/24 01:46:18;;;;;;;4.72;4.03;;;;;;;5.17;50.27;100657.69;5035213;28;20044;-80
2021/03/24 01:48:58;;;;;;;8.98;3.38;;;;;;;5.28;49.86;100683.06;5035778;28;20037;-80
2021/03/24 01:51:39;;;;;;;5.47;3.78;;;;;;;5.48;49.47;100685.28;5035602;28;20040;-79
2021/03/24 01:54:10;;;;;;;4.78;3.33;;;;;;;5.33;50.91;100679.38;5035387;28;20036;-80
2021/03/24 01:56:38;;;;;;;7.00;4.38;;;;;;;5.27;51.48;100686.94;5037337;28;20030;-80
2021/03/24 01:59:04;;;;;;;6.13;4.45;;;;;;;5.37;50.26;100683.09;5036665;28;20409;-79
2021/03/24 02:01:31;;;;;;;7.63;4.25;;;;;;;5.40;49.49;100685.25;5035477;28;20083;-79
2021/03/24 02:03:57;;;;;;;6.10;3.97;;;;;;;5.37;49.97;100680.34;5035863;28;20030;-80
2021/03/24 02:07:00;;;;;;;6.38;4.50;;;;;;;5.17;50.47;100671.47;5035340;28;20044;-79
2021/03/24 02:09:33;;;;;;;5.55;3.78;;;;;;;5.07;50.65;100673.69;5034879;28;20042;-80
2021/03/24 02:12:10;;;;;;;8.75;3.92;;;;;;;4.91;50.75;100673.25;5035135;28;20515;-80
2021/03/24 02:14:39;;;;;;;4.43;3.53;;;;;;;4.72;51.23;100678.91;5035008;28;20025;-80
2021/03/24 02:17:06;;;;;;;5.20;4.13;;;;;;;4.80;51.27;100677.38;5034392;28;20065;-80
2021/03/24 02:20:03;;;;;;;7.70;4.13;;;;;;;4.69;51.56;100685.06;5038974;28;20072;-79
2021/03/24 02:22:36;;;;;;;7.90;4.43;;;;;;;4.78;51.22;100687.88;5055915;28;20058;-80
2021/03/24 02:25:16;;;;;;;4.20;3.80;;;;;;;4.71;50.71;100683.63;5038057;28;20037;-80
2021/03/24 02:27:47;;;;;;;7.03;3.75;;;;;;;4.55;50.91;100681.53;5026159;28;20350;-80
2021/03/24 02:30:19;;;;;;;7.85;4.07;;;;;;;4.56;51.93;100685.91;5041218;28;20535;-80
2021/03/24 02:32:58;;;;;;;4.13;3.70;;;;;;;4.65;51.22;100673.03;5038334;28;20025;-80
2021/03/24 02:35:32;;;;;;;5.82;4.60;;;;;;;4.58;51.77;100669.84;5056734;28;20127;-80
2021/03/24 02:38:00;;;;;;;5.00;4.22;;;;;;;4.38;51.67;100658.19;5038585;28;20036;-80
2021/03/24 02:40:29;;;;;;;7.93;4.95;;;;;;;4.42;52.30;100674.91;5038405;28;20040;-80
2021/03/24 02:42:55;;;;;;;4.72;4.18;;;;;;;4.31;52.65;100665.22;5039183;28;20037;-80
2021/03/24 02:45:30;;;;;;;7.57;4.60;;;;;;;4.37;52.26;100677.78;5038301;28;20060;-80
2021/03/24 02:48:02;;;;;;;6.30;4.68;;;;;;;4.30;52.47;100652.59;5038655;28;20388;-80
2021/03/24 02:50:29;;;;;;;7.47;5.10;;;;;;;4.37;52.79;100677.78;5038241;28;20031;-80
2021/03/24 02:52:56;;;;;;;6.65;4.60;;;;;;;4.23;52.27;100660.47;5038310;28;20037;-80
2021/03/24 02:55:22;;;;;;;6.70;5.00;;;;;;;4.30;52.32;100671.88;5037885;28;20471;-80
2021/03/24 02:57:52;;;;;;;4.82;4.32;;;;;;;4.44;52.58;100678.19;5038050;28;20079;-80
2021/03/24 03:00:21;;;;;;;8.02;5.28;;;;;;;4.42;54.06;100685.91;5055450;28;20024;-80
2021/03/24 03:02:59;;;;;;;6.40;4.78;;;;;;;4.42;53.75;100680.41;5056583;28;20387;-80
2021/03/24 03:05:34;;;;;;;6.90;5.57;;;;;;;4.34;55.00;100657.19;5038395;28;20039;-80
2021/03/24 03:08:12;;;;;;;5.75;4.43;;;;;;;4.55;54.41;100693.34;5037861;28;20128;-80
2021/03/24 03:10:49;;;;;;;5.43;3.83;;;;;;;4.72;53.21;100679.72;5037745;28;20049;-79
2021/03/24 03:13:34;;;;;;;4.63;4.13;;;;;;;4.66;52.90;100658.91;5037980;28;20086;-77
2021/03/24 03:16:35;;;;;;;3.53;3.15;;;;;;;4.95;53.02;100688.84;5037134;28;20036;-77
2021/03/24 03:19:07;;;;;;;6.35;3.88;;;;;;;4.79;54.47;100692.25;5033613;28;20041;-77
2021/03/24 03:21:41;;;;;;;8.10;3.92;;;;;;;4.78;54.48;100682.38;5033304;28;20107;-77
2021/03/24 03:24:09;;;;;;;4.90;4.00;;;;;;;4.58;54.32;100673.47;5033538;28;20116;-77
2021/03/24 03:26:38;;;;;;;3.85;3.05;;;;;;;4.64;54.80;100661.19;5033100;28;20033;-77
2021/03/24 03:29:10;;;;;;;4.95;3.42;;;;;;;4.87;55.22;100688.78;5033802;28;20029;-77
2021/03/24 03:31:39;;;;;;;3.47;2.22;;;;;;;5.07;54.30;100679.19;5033647;28;20029;-78
2021/03/24 03:34:09;;;;;;;4.63;2.05;;;;;;;5.23;54.24;100683.19;5033218;28;20025;-77
2021/03/24 03:36:37;;;;;;;3.63;2.22;;;;;;;5.06;53.76;100656.31;5033224;28;20047;-77
2021/03/24 03:39:06;;;;;;;3.17;2.13;;;;;;;5.29;54.32;100692.97;5033491;28;20112;-79
2021/03/24 03:41:33;;;;;;;4.43;2.35;;;;;;;5.34;53.85;100692.84;5033359;28;20029;-79
2021/03/24 03:44:03;;;;;;;3.90;2.03;;;;;;;5.35;53.88;100696.41;5033310;28;20124;-79
2021/03/24 03:46:35;;;;;;;3.65;1.88;;;;;;;5.35;54.27;100696.41;5033021;28;20064;-79
2021/03/24 03:49:01;;;;;;;2.25;2.10;;;;;;;5.35;54.06;100696.41;5032970;28;20475;-79
2021/03/24 03:51:35;;;;;;;2.55;2.25;;;;;;;5.20;53.98;100673.59;5032725;28;20034;-79
2021/03/24 03:54:19;;;;;;;2.63;2.42;;;;;;;5.18;54.61;100703.44;5033073;28;20061;-79
2021/03/24 03:57:01;;;;;;;2.03;1.85;;;;;;;5.13;54.37;100678.75;5033588;28;20029;-79
2021/03/24 03:59:37;;;;;;;3.83;2.30;;;;;;;5.20;54.38;100701.19;5033008;28;20061;-79
2021/03/24 04:02:08;;;;;;;2.58;2.10;;;;;;;5.25;54.34;100706.56;5034172;28;20032;-80
2021/03/24 04:04:51;;;;;;;2.85;1.90;;;;;;;5.33;54.06;100709.72;5032997;28;20080;-79
2021/03/24 04:07:25;;;;;;;2.35;1.88;;;;;;;5.59;53.29;100710.66;5032696;28;20021;-77
2021/03/24 04:09:55;;;;;;;2.58;2.08;;;;;;;5.46;53.70;100703.28;5032425;28;20095;-77
2021/03/24 04:12:26;;;;;;;2.38;1.90;;;;;;;5.43;53.47;100710.28;5033242;28;20480;-77
2021/03/24 04:14:53;;;;;;;2.63;2.40;;;;;;;5.33;53.64;100709.72;5032954;28;20424;-77
2021/03/24 04:17:27;;;;;;;3.28;2.92;;;;;;;5.15;55.06;100698.53;5032486;28;20191;-77
2021/03/24 04:19:54;;;;;;;7.60;4.68;;;;;;;5.17;55.12;100709.28;5032705;28;20464;-77
2021/03/24 04:22:25;;;;;;;8.20;7.38;;;;;;;5.15;56.41;100712.34;5033422;28;20464;-77
2021/03/24 04:24:54;;;;;;;6.78;4.13;;;;;;;5.00;54.78;100685.13;5032727;28;20029;-77
2021/03/24 04:27:27;;;;;;;3.50;3.03;;;;;;;5.14;54.19;100712.66;5032915;28;20064;-77
2021/03/24 04:29:57;;;;;;;4.80;3.55;;;;;;;5.05;55.54;100712.59;5032645;28;20033;-77
2021/03/24 04:32:23;;;;;;;7.40;4.90;;;;;;;5.04;55.88;100713.72;5032794;28;20057;-77
2021/03/24 04:34:49;;;;;;;13.77;10.20;;;;;;;5.02;57.03;100704.13;5033815;28;20496;-77
2021/03/24 04:37:33;;;;;;;18.33;14.13;;;;;;;4.93;56.92;100706.81;5034433;28;20036;-77
2021/03/24 04:40:16;;;;;;;18.98;15.45;;;;;;;4.92;57.45;100713.47;5036530;28;20025;-77
2021/03/24 04:43:03;;;;;;;16.20;12.82;;;;;;;4.82;57.11;100713.69;5036157;28;20031;-77
2021/03/24 04:45:39;;;;;;;13.18;10.07;;;;;;;4.91;57.46;100715.41;5037491;28;20021;-77
2021/03/24 04:48:13;;;;;;;6.30;5.65;;;;;;;4.86;56.99;100711.97;5036289;28;20037;-77
2021/03/24 04:50:47;;;;;;;17.88;13.00;;;;;;;4.83;57.34;100718.09;5036836;28;20056;-77
2021/03/24 04:53:17;;;;;;;14.05;9.82;;;;;;;4.89;57.13;100720.41;5035866;28;20030;-77
2021/03/24 04:55:46;;;;;;;8.43;3.78;;;;;;;4.84;56.11;100719.72;5036571;28;20029;-77
2021/03/24 04:58:26;;;;;;;8.90;7.50;;;;;;;4.49;57.20;100678.06;5036435;28;20040;-77
2021/03/24 05:01:00;;;;;;;8.32;7.20;;;;;;;4.65;57.75;100709.66;5021071;28;20060;-77
2021/03/24 05:03:32;;;;;;;17.03;11.77;;;;;;;4.64;58.33;100713.56;5036101;28;20029;-77
2021/03/24 05:06:02;;;;;;;7.22;4.60;;;;;;;4.65;56.81;100723.44;5035714;28;20268;-77
2021/03/24 05:08:40;;;;;;;4.35;3.25;;;;;;;4.31;57.97;100707.38;5035792;28;20029;-77
2021/03/24 05:11:18;;;;;;;4.65;3.90;;;;;;;4.45;57.38;100721.13;5035811;28;20033;-77
2021/03/24 05:13:52;;;;;;;6.50;4.00;;;;;;;4.39;57.74;100730.66;5035920;28;20034;-77
2021/03/24 05:16:40;;;;;;;4.72;3.88;;;;;;;4.43;57.31;100726.16;5035654;28;20116;-77
2021/03/24 05:19:06;;;;;;;3.97;3.50;;;;;;;4.49;56.99;100738.69;5035436;28;20095;-77
2021/03/24 05:21:37;;;;;;;8.60;4.20;;;;;;;4.52;55.71;100745.50;5035041;28;20295;-77
2021/03/24 05:24:06;;;;;;;5.78;4.20;;;;;;;4.55;55.60;100744.91;5035877;28;20033;-77
2021/03/24 05:26:38;;;;;;;3.65;3.22;;;;;;;4.49;56.61;100757.16;5035965;28;20472;-77
2021/03/24 05:29:12;;;;;;;4.90;4.32;;;;;;;4.52;57.31;100757.34;5035342;28;20029;-77
2021/03/24 05:31:50;;;;;;;5.82;4.25;;;;;;;4.70;57.71;100756.41;5035372;28;20460;-77
2021/03/24 05:34:38;;;;;;;6.78;5.45;;;;;;;4.67;57.19;100750.69;5035391;28;20036;-77
2021/03/24 05:37:09;;;;;;;8.00;5.70;;;;;;;4.70;57.27;100748.16;5035104;28;20060;-77
2021/03/24 05:39:39;;;;;;;6.47;5.30;;;;;;;4.82;57.36;100752.31;5035310;28;20029;-77
2021/03/24 05:42:25;;;;;;;8.75;6.38;;;;;;;4.79;57.02;100756.47;5035697;28;20091;-77
2021/03/24 05:45:06;;;;;;;10.30;6.28;;;;;;;4.60;57.09;100726.31;5035365;28;20091;-77
2021/03/24 05:47:49;;;;;;;10.20;6.07;;;;;;;4.80;57.34;100757.31;5035631;28;20120;-77
2021/03/24 05:50:52;;;;;;;10.88;6.70;;;;;;;4.94;57.56;100763.59;5035680;28;20108;-77
2021/03/24 05:53:46;;;;;;;10.30;6.47;;;;;;;4.93;57.03;100765.53;5034854;28;20488;-77
2021/03/24 05:56:42;;;;;;;11.95;7.88;;;;;;;4.93;57.16;100765.53;5034745;28;20033;-77
2021/03/24 05:59:33;;;;;;;10.13;6.72;;;;;;;5.19;57.00;100774.03;5034630;28;20025;-77
2021/03/24 06:02:09;;;;;;;8.98;6.55;;;;;;;5.06;57.26;100765.81;5034819;28;20052;-77
2021/03/24 06:04:49;;;;;;;7.05;6.10;;;;;;;5.17;57.34;100784.59;5035144;28;20067;-77
2021/03/24 06:07:35;;;;;;;9.30;6.57;;;;;;;5.17;57.55;100781.00;5034842;28;20033;-77
2021/03/24 06:10:28;;;;;;;11.55;5.35;;;;;;;5.22;56.90;100787.22;5034131;28;20037;-77
2021/03/24 06:13:14;;;;;;;7.72;5.45;;;;;;;5.29;56.41;100780.44;5034868;28;20038;-77
2021/03/24 06:15:55;;;;;;;6.22;5.10;;;;;;;5.34;55.63;100785.84;5035779;28;20037;-77
2021/03/24 06:18:42;;;;;;;9.75;5.07;;;;;;;5.49;55.70;100791.00;5034367;28;20040;-77
2021/03/24 06:21:26;;;;;;;7.20;4.97;;;;;;;5.55;55.17;100778.69;5033861;28;20382;-79
2021/03/24 06:24:10;;;;;;;;;;;;;;;5.59;54.57;100779.66;5035067;28;20433;-79
2021/03/24 06:26:51;;;;;;;6.05;5.00;;;;;;;5.68;54.15;100785.25;5035011;28;19917;-79
2021/03/24 06:29:25;;;;;;;10.38;6.15;;;;;;;5.51;54.86;100791.50;5034310;28;20029;-79
2021/03/24 06:32:15;;;;;;;5.53;4.22;;;;;;;5.48;54.19;100778.31;5034550;28;20033;-79
2021/03/24 06:35:07;;;;;;;7.40;5.13;;;;;;;5.61;54.35;100791.22;5034365;28;20033;-79
2021/03/24 06:37:59;;;;;;;7.72;4.82;;;;;;;5.75;54.03;100783.69;5034518;28;20044;-79
2021/03/24 06:40:31;;;;;;;5.43;4.72;;;;;;;5.93;53.50;100794.88;5034092;28;20123;-79
2021/03/24 06:43:24;;;;;;;6.63;5.05;;;;;;;6.19;52.94;100786.72;5033742;28;20037;-79
2021/03/24 06:45:56;;;;;;;14.18;5.68;;;;;;;6.17;52.53;100769.63;5033702;28;20040;-79
2021/03/24 06:48:39;;;;;;;6.97;4.65;;;;;;;6.71;51.75;100781.31;5034167;28;20033;-79
2021/03/24 06:51:35;;;;;;;7.22;5.63;;;;;;;6.98;51.55;100780.25;5033809;28;20469;-79
2021/03/24 06:54:19;;;;;;;9.73;4.63;;;;;;;7.24;51.17;100771.94;5034346;28;20065;-79
2021/03/24 06:57:18;;;;;;;7.25;4.65;;;;;;;7.46;49.48;100773.72;5033458;28;20029;-79
2021/03/24 07:00:27;;;;;;;6.95;4.57;;;;;;;9.03;47.32;100780.25;5032944;28;20032;-79
2021/03/24 07:03:11;;;;;;;9.73;4.75;;;;;;;10.87;42.55;100781.53;5033330;28;20029;-79
2021/03/24 07:05:42;;;;;;;;;;;;;;;11.75;40.87;100788.88;5033668;28;20075;-79
2021/03/24 07:08:16;;;;;;;10.13;5.95;;;;;;;11.37;40.02;100792.19;5033792;28;19913;-79
2021/03/24 07:11:07;;;;;;;7.35;4.65;;;;;;;11.62;39.84;100764.22;5034064;28;20120;-78
2021/03/24 07:14:04;;;;;;;9.20;5.35;;;;;;;12.78;37.77;100793.56;5033200;28;20033;-78
2021/03/24 07:16:51;;;;;;;11.02;6.18;;;;;;;12.25;38.98;100778.25;5033341;28;20476;-78
2021/03/24 07:19:53;;;;;;;66.00;34.30;;;;;;;12.12;38.50;100801.84;5033673;28;20487;-77
2021/03/24 07:22:23;;;;;;;16.20;7.63;;;;;;;11.35;39.50;100800.09;5036339;28;20154;-78
2021/03/24 07:25:20;;;;;;;5.60;4.07;;;;;;;10.79;40.56;100777.69;5036394;28;20035;-77
2021/03/24 07:27:54;;;;;;;3.08;2.50;;;;;;;10.73;40.02;100812.50;5036252;28;20025;-77
2021/03/24 07:30:38;;;;;;;3.13;2.28;;;;;;;10.49;40.31;100807.72;5036725;28;20033;-77
2021/03/24 07:33:11;;;;;;;7.90;3.90;;;;;;;10.62;39.79;100814.13;5039332;28;20121;-78
2021/03/24 07:35:59;;;;;;;3.90;3.33;;;;;;;10.44;39.52;100794.88;5039886;28;20463;-77
2021/03/24 07:38:46;;;;;;;4.38;3.97;;;;;;;10.31;42.81;100818.28;5037716;28;20578;-77
2021/03/24 07:41:36;;;;;;;7.72;5.15;;;;;;;10.27;43.37;100828.44;5036583;28;20128;-79
2021/03/24 07:44:07;;;;;;;6.05;4.65;;;;;;;10.05;43.32;100820.50;5056185;28;20104;-79
2021/03/24 07:46:51;;;;;;;7.93;5.03;;;;;;;9.95;44.19;100830.91;5036546;28;20037;-78
2021/03/24 07:49:31;;;;;;;;;;;;;;;10.04;43.83;100821.66;5038280;28;20115;-78
2021/03/24 07:52:34;;;;;;;8.38;5.72;;;;;;;10.32;43.26;100825.44;5036884;28;20355;-78
2021/03/24 07:55:17;;;;;;;14.20;11.80;;;;;;;11.29;41.10;100823.78;5036583;28;20029;-78
2021/03/24 07:58:20;;;;;;;12.07;5.43;;;;;;;11.41;40.66;100823.75;5036069;28;20039;-79
2021/03/24 08:00:57;;;;;;;7.70;5.05;;;;;;;11.47;40.88;100819.56;5036622;28;20079;-78
2021/03/24 08:03:37;;;;;;;6.03;5.35;;;;;;;11.77;40.30;100821.97;5036261;28;20029;-79
2021/03/24 08:06:14;;;;;;;4.22;3.25;;;;;;;12.88;37.00;100819.28;5035988;28;20063;-78
2021/03/24 08:09:17;;;;;;;2.17;1.77;;;;;;;12.71;35.99;100823.28;5035605;28;20040;-78
2021/03/24 08:11:55;;;;;;;4.88;2.17;;;;;;;12.72;34.81;100777.44;5036887;28;20069;-78
2021/03/24 08:14:24;;;;;;;2.60;1.92;;;;;;;13.08;34.81;100824.56;5039806;28;20029;-79
2021/03/24 08:16:58;;;;;;;5.03;2.53;;;;;;;12.87;35.17;100824.06;5039678;28;20045;-78
2021/03/24 08:20:09;;;;;;;4.90;1.90;;;;;;;12.96;35.02;100819.09;5039609;28;20079;-78
2021/03/24 08:23:12;;;;;;;2.75;2.00;;;;;;;13.10;34.97;100826.97;5040668;28;20124;-78
2021/03/24 08:26:05;;;;;;;5.35;2.35;;;;;;;13.36;33.98;100818.81;5040000;28;20108;-78
2021/03/24 08:28:54;;;;;;;3.80;2.25;;;;;;;13.86;33.36;100835.84;5040115;28;20055;-78
2021/03/24 08:31:50;;;;;;;4.30;2.33;;;;;;;14.18;32.59;100830.06;5040688;28;20056;-79
2021/03/24 08:34:46;;;;;;;3.70;2.65;;;;;;;13.95;32.24;100833.59;5040030;28;20115;-78
2021/03/24 08:37:32;;;;;;;3.88;3.08;;;;;;;13.80;33.29;100832.53;5040923;28;20025;-79
2021/03/24 08:40:24;;;;;;;3.53;1.92;;;;;;;13.55;32.93;100832.00;5011318;28;20469;-80
2021/03/24 08:43:30;;;;;;;4.90;1.80;;;;;;;13.67;33.21;100828.25;5042063;28;20082;-80
2021/03/24 08:46:26;;;;;;;3.42;2.13;;;;;;;13.46;32.92;100828.63;5041526;28;20029;-79
2021/03/24 08:48:57;;;;;;;2.85;2.30;;;;;;;13.49;33.42;100827.88;5039865;28;20036;-79
2021/03/24 08:51:48;;;;;;;3.50;2.50;;;;;;;13.35;33.24;100833.16;5060459;28;20468;-79
2021/03/24 08:54:20;;;;;;;7.57;3.33;;;;;;;12.86;33.28;100783.34;5040615;28;20021;-80
2021/03/24 08:56:53;;;;;;;3.80;2.50;;;;;;;13.16;32.33;100830.34;5040564;28;20028;-78
2021/03/24 08:59:37;;;;;;;;;;;;;;;13.24;32.69;100840.50;5041149;28;20128;-79
2021/03/24 09:02:34;;;;;;;2.28;1.70;;;;;;;12.66;33.18;100829.13;5040894;28;19916;-80
2021/03/24 09:05:22;;;;;;;19.95;3.30;;;;;;;12.74;32.82;100833.72;5040608;28;20028;-80
2021/03/24 09:08:09;;;;;;;3.00;1.45;;;;;;;12.72;32.99;100834.06;5041684;28;20482;-79
2021/03/24 09:10:43;;;;;;;2.53;2.28;;;;;;;12.62;32.42;100794.72;5041005;28;20037;-80
2021/03/24 09:13:25;;;;;;;;;;;;;;;12.90;32.58;100834.53;5040774;28;20044;-80
2021/03/24 09:16:03;;;;;;;6.60;2.53;;;;;;;12.81;32.36;100825.53;5040110;28;19908;-80
2021/03/24 09:18:33;;;;;;;10.35;2.95;;;;;;;12.82;33.39;100832.72;5040669;28;20025;-79
2021/03/24 09:21:02;;;;;;;8.10;4.35;;;;;;;12.94;32.87;100840.16;5036517;28;20057;-79
2021/03/24 09:23:40;;;;;;;7.35;2.20;;;;;;;12.94;33.05;100835.41;5035740;28;20025;-78
2021/03/24 09:26:38;;;;;;;3.95;2.35;;;;;;;12.97;33.12;100831.88;5037221;28;20388;-79
2021/03/24 09:29:20;;;;;;;2.08;1.98;;;;;;;13.12;33.14;100830.25;5026661;28;20446;-79
2021/03/24 09:31:55;;;;;;;3.88;2.50;;;;;;;12.96;32.74;100829.47;5037702;28;20045;-79
2021/03/24 09:34:39;;;;;;;3.20;2.45;;;;;;;13.07;32.85;100833.31;5037088;28;20029;-77
2021/03/24 09:37:20;;;;;;;5.30;2.53;;;;;;;13.14;32.25;100832.66;5037540;28;20029;-79
2021/03/24 09:39:56;;;;;;;4.43;2.90;;;;;;;13.17;32.33;100826.34;5039636;28;20029;-79
2021/03/24 09:42:34;;;;;;;4.35;2.85;;;;;;;13.39;32.42;100822.88;5039198;28;20064;-81
2021/03/24 09:45:12;;;;;;;2.33;1.65;;;;;;;13.35;32.19;100827.56;5037560;28;20025;-80
2021/03/24 09:47:41;;;;;;;2.33;1.90;;;;;;;13.46;31.55;100823.03;5037161;28;20029;-80
2021/03/24 09:50:19;;;;;;;6.65;2.45;;;;;;;13.67;31.20;100828.25;5036501;28;20086;-79
2021/03/24 09:53:00;;;;;;;5.38;2.65;;;;;;;14.57;30.03;100830.75;5036025;28;20021;-80
2021/03/24 09:55:27;;;;;;;2.85;2.53;;;;;;;15.06;29.59;100829.94;5036682;28;20095;-79
2021/03/24 09:58:22;;;;;;;2.42;2.22;;;;;;;15.62;28.50;100835.53;5036811;28;20074;-80
2021/03/24 10:01:00;;;;;;;4.45;2.42;;;;;;;16.11;28.15;100826.09;5039963;28;20500;-80
2021/03/24 10:03:28;;;;;;;5.43;2.83;;;;;;;16.44;27.65;100804.75;5042285;28;20404;-80
2021/03/24 10:06:02;;;;;;;3.00;2.58;;;;;;;16.43;27.78;100828.41;5039252;28;20035;-80
2021/03/24 10:08:52;;;;;;;5.28;2.72;;;;;;;15.06;29.59;100833.53;5035884;28;20037;-80
2021/03/24 10:11:25;;;;;;;4.88;2.80;;;;;;;14.79;30.17;100829.13;5035872;28;20071;-80
2021/03/24 10:14:09;;;;;;;3.08;2.55;;;;;;;15.21;30.16;100831.75;5036146;28;20030;-79
2021/03/24 10:16:43;;;;;;;5.38;3.47;;;;;;;15.07;30.12;100829.53;5035526;28;20033;-80
2021/03/24 10:19:18;;;;;;;8.52;5.00;;;;;;;14.70;30.70;100831.38;5035783;28;20030;-80
2021/03/24 10:21:55;;;;;;;14.82;5.85;;;;;;;14.48;30.78;100805.00;5035881;28;20377;-80
2021/03/24 10:24:29;;;;;;;6.90;2.22;;;;;;;13.57;32.79;100821.25;5037557;28;20054;-80
2021/03/24 10:27:02;;;;;;;13.05;10.30;;;;;;;13.47;33.07;100824.63;5036048;28;20029;-80
2021/03/24 10:29:48;;;;;;;12.55;8.43;;;;;;;13.51;33.14;100824.72;5035564;28;20495;-80
2021/03/24 10:32:32;;;;;;;6.78;4.97;;;;;;;13.69;32.56;100820.31;5035445;28;20029;-80
2021/03/24 10:35:18;;;;;;;;;;;;;;;13.47;33.39;100821.03;5036962;28;20126;-80
2021/03/24 10:37:54;;;;;;;3.63;3.10;;;;;;;13.42;33.28;100816.53;5036372;28;19960;-80
2021/03/24 10:40:30;;;;;;;8.05;6.70;;;;;;;13.76;33.16;100819.66;5036307;28;20544;-80
2021/03/24 10:43:08;;;;;;;7.25;4.97;;;;;;;13.91;33.20;100815.16;5036324;28;20092;-78
2021/03/24 10:45:40;;;;;;;8.38;4.10;;;;;;;14.05;32.49;100810.63;5037364;28;20056;-80
2021/03/24 10:48:18;;;;;;;6.45;5.07;;;;;;;13.62;32.21;100817.38;5035920;28;20042;-80
2021/03/24 10:51:05;;;;;;;6.25;4.57;;;;;;;13.82;32.59;100809.78;5037073;28;20032;-80
2021/03/24 10:53:34;;;;;;;5.85;3.78;;;;;;;13.51;32.61;100808.75;5036556;28;20033;-80
2021/03/24 10:56:21;;;;;;;6.18;3.97;;;;;;;13.92;32.77;100806.38;5036103;28;20120;-80
2021/03/24 10:59:07;;;;;;;3.80;3.17;;;;;;;14.34;32.38;100799.94;5036494;28;20025;-80
2021/03/24 11:01:55;;;;;;;5.45;4.63;;;;;;;14.43;31.51;100789.28;5036855;28;20368;-80
2021/03/24 11:04:53;;;;;;;7.70;4.90;;;;;;;14.39;31.46;100803.25;5037741;28;20368;-80
2021/03/24 11:07:25;;;;;;;7.20;4.78;;;;;;;13.99;32.24;100814.91;5036405;28;20064;-80
2021/03/24 11:10:25;;;;;;;3.90;2.97;;;;;;;14.04;32.09;100800.59;5036846;28;20484;-80
2021/03/24 11:13:04;;;;;;;5.20;3.05;;;;;;;14.75;31.81;100797.44;5036000;28;20029;-80
2021/03/24 11:15:45;;;;;;;6.20;5.60;;;;;;;15.16;30.61;100798.44;5035320;28;20037;-80
2021/03/24 11:18:19;;;;;;;3.90;3.10;;;;;;;15.71;29.28;100799.59;5035585;28;20026;-80
2021/03/24 11:20:58;;;;;;;4.93;3.70;;;;;;;16.23;28.68;100797.75;5034935;28;20100;-80
2021/03/24 11:23:51;;;;;;;7.63;6.03;;;;;;;15.66;28.07;100802.75;5036110;28;20369;-80
2021/03/24 11:26:16;;;;;;;7.85;4.97;;;;;;;15.61;28.61;100800.25;5036078;28;20387;-80
2021/03/24 11:28:48;;;;;;;20.92;14.30;;;;;;;15.88;27.99;100792.59;5036535;28;20065;-80
2021/03/24 11:31:27;;;;;;;4.15;3.22;;;;;;;15.68;29.11;100793.94;5035123;28;20036;-80
2021/03/24 11:34:09;;;;;;;2.78;2.45;;;;;;;16.33;27.16;100779.38;5035641;28;20037;-80
2021/03/24 11:36:44;;;;;;;6.28;3.08;;;;;;;15.77;28.82;100782.44;5035329;28;20029;-80
2021/03/24 11:39:23;;;;;;;4.32;2.80;;;;;;;15.64;28.59;100774.25;5035173;28;20087;-80
2021/03/24 11:41:49;;;;;;;5.15;2.65;;;;;;;15.04;29.85;100771.47;5035505;28;20030;-80
2021/03/24 11:44:30;;;;;;;3.50;2.85;;;;;;;14.86;30.11;100776.81;5034685;28;20086;-80
2021/03/24 11:47:25;;;;;;;5.28;2.78;;;;;;;14.91;29.63;100773.69;5035490;28;20025;-80
2021/03/24 11:50:00;;;;;;;3.70;2.47;;;;;;;14.72;30.19;100785.00;5034530;28;20069;-80
2021/03/24 11:53:04;;;;;;;7.60;3.83;;;;;;;14.17;30.79;100784.47;5034931;28;20503;-80
2021/03/24 11:55:48;;;;;;;4.97;4.18;;;;;;;13.98;31.12;100774.13;5013519;28;20068;-80
2021/03/24 11:58:42;;;;;;;4.45;3.85;;;;;;;14.05;30.86;100762.25;5035896;28;20056;-81
2021/03/24 12:01:28;;;;;;;;;;;;;;;13.99;31.14;100774.94;5035587;28;20076;-80
2021/03/24 12:04:31;;;;;;;6.70;3.05;;;;;;;13.16;31.82;100764.09;5034328;28;19909;-80
2021/03/24 12:07:05;;;;;;;4.07;2.83;;;;;;;13.24;32.37;100765.06;5034373;28;20030;-79
2021/03/24 12:09:35;;;;;;;;;;;;;;;13.22;31.87;100767.41;5035564;28;20392;-79
2021/03/24 12:12:20;;;;;;;5.45;3.38;;;;;;;13.32;32.47;100759.25;5035199;28;20366;-79
2021/03/24 12:15:03;;;;;;;3.25;2.63;;;;;;;13.05;32.25;100752.66;5035412;28;20030;-80
2021/03/24 12:17:35;;;;;;;5.80;2.10;;;;;;;13.18;32.41;100746.94;5020344;28;20033;-80
2021/03/24 12:20:13;;;;;;;5.80;2.80;;;;;;;13.31;31.95;100748.44;5035658;28;20050;-80